sensor_id;sensor_type;location;lat;lon;timestamp;pressure;altitude;pressure_sealevel;temperature;humidity
63096;BME280;49184;55.596;37.770;2022-09-24T00:03:56;98631.47;;;10.88;82.84
63096;BME280;49184;55.596;37.770;2022-09-24T00:06:26;98628.69;;;10.97;83.36
63096;BME280;49184;55.596;37.770;2022-09-24T00:11:27;98604.75;;;10.94;83.25
63096;BME280;49184;55.596;37.770;2022-09-24T00:13:55;98592.00;;;10.98;83.33
63096;BME280;49184;55.596;37.770;2022-09-24T00:16:23;98595.50;;;10.86;83.11
63096;BME280;49184;55.596;37.770;2022-09-24T00:18:51;98581.94;;;10.90;83.54
63096;BME280;49184;55.596;37.770;2022-09-24T00:21:23;98561.66;;;10.91;83.95
63096;BME280;49184;55.596;37.770;2022-09-24T00:23:52;98581.28;;;11.14;83.17
63096;BME280;49184;55.596;37.770;2022-09-24T00:26:19;98561.75;;;11.03;83.20
63096;BME280;49184;55.596;37.770;2022-09-24T00:29:07;98548.56;;;11.17;83.41
63096;BME280;49184;55.596;37.770;2022-09-24T00:34:04;98510.56;;;11.03;82.27
63096;BME280;49184;55.596;37.770;2022-09-24T00:36:30;98538.59;;;11.34;82.64
63096;BME280;49184;55.596;37.770;2022-09-24T00:38:57;98529.72;;;11.37;82.58
63096;BME280;49184;55.596;37.770;2022-09-24T00:41:30;98487.00;;;11.11;82.50
63096;BME280;49184;55.596;37.770;2022-09-24T00:43:56;98495.81;;;11.17;82.05
63096;BME280;49184;55.596;37.770;2022-09-24T00:46:31;98488.28;;;11.14;81.41
63096;BME280;49184;55.596;37.770;2022-09-24T00:49:05;98447.97;;;10.90;81.56
63096;BME280;49184;55.596;37.770;2022-09-24T00:51:36;98483.59;;;11.14;81.99
63096;BME280;49184;55.596;37.770;2022-09-24T00:56:37;98448.09;;;10.93;82.03
63096;BME280;49184;55.596;37.770;2022-09-24T00:59:07;98468.28;;;11.01;81.63
63096;BME280;49184;55.596;37.770;2022-09-24T01:04:05;98462.56;;;10.94;82.50
63096;BME280;49184;55.596;37.770;2022-09-24T01:06:32;98434.72;;;10.79;82.51
63096;BME280;49184;55.596;37.770;2022-09-24T01:08:58;98470.00;;;11.05;82.28
63096;BME280;49184;55.596;37.770;2022-09-24T01:17:12;98462.88;;;10.92;82.70
63096;BME280;49184;55.596;37.770;2022-09-24T01:20:17;98455.31;;;10.77;83.53
63096;BME280;49184;55.596;37.770;2022-09-24T01:25:31;98432.44;;;10.81;84.03
63096;BME280;49184;55.596;37.770;2022-09-24T01:28:23;98444.88;;;10.91;83.29
63096;BME280;49184;55.596;37.770;2022-09-24T01:30:59;98406.06;;;10.65;83.58
63096;BME280;49184;55.596;37.770;2022-09-24T01:33:31;98422.72;;;10.72;83.77
63096;BME280;49184;55.596;37.770;2022-09-24T01:36:01;98387.69;;;10.53;83.97
63096;BME280;49184;55.596;37.770;2022-09-24T01:38:40;98399.69;;;10.61;83.83
63096;BME280;49184;55.596;37.770;2022-09-24T01:41:14;98422.53;;;10.77;83.57
63096;BME280;49184;55.596;37.770;2022-09-24T01:43:43;98381.09;;;10.54;83.97
63096;BME280;49184;55.596;37.770;2022-09-24T01:46:11;98373.75;;;10.46;84.15
63096;BME280;49184;55.596;37.770;2022-09-24T01:48:39;98394.22;;;10.61;84.35
63096;BME280;49184;55.596;37.770;2022-09-24T01:51:22;98339.84;;;10.26;84.76
63096;BME280;49184;55.596;37.770;2022-09-24T01:53:53;98395.19;;;10.56;84.96
63096;BME280;49184;55.596;37.770;2022-09-24T01:56:29;98352.19;;;10.32;85.02
63096;BME280;49184;55.596;37.770;2022-09-24T01:59:05;98335.66;;;10.28;84.76
63096;BME280;49184;55.596;37.770;2022-09-24T02:01:41;98314.75;;;10.11;85.30
63096;BME280;49184;55.596;37.770;2022-09-24T02:04:17;98312.75;;;10.21;84.72
63096;BME280;49184;55.596;37.770;2022-09-24T02:07:05;98341.50;;;10.39;84.64
63096;BME280;49184;55.596;37.770;2022-09-24T02:09:38;98312.88;;;10.24;84.43
63096;BME280;49184;55.596;37.770;2022-09-24T02:12:14;98334.09;;;10.40;84.56
63096;BME280;49184;55.596;37.770;2022-09-24T02:14:58;98316.06;;;10.26;84.63
63096;BME280;49184;55.596;37.770;2022-09-24T02:17:29;98315.13;;;10.22;85.11
63096;BME280;49184;55.596;37.770;2022-09-24T02:20:00;98353.41;;;10.55;84.53
63096;BME280;49184;55.596;37.770;2022-09-24T02:22:29;98336.22;;;10.55;84.39
63096;BME280;49184;55.596;37.770;2022-09-24T02:25:00;98332.16;;;10.61;84.13
63096;BME280;49184;55.596;37.770;2022-09-24T02:29:58;98279.81;;;10.38;83.63
63096;BME280;49184;55.596;37.770;2022-09-24T02:32:28;98331.88;;;10.87;83.59
63096;BME280;49184;55.596;37.770;2022-09-24T02:34:58;98303.22;;;10.60;83.31
63096;BME280;49184;55.596;37.770;2022-09-24T02:37:34;98317.72;;;10.73;83.16
63096;BME280;49184;55.596;37.770;2022-09-24T02:40:02;98318.66;;;10.77;83.90
63096;BME280;49184;55.596;37.770;2022-09-24T02:42:29;98269.38;;;10.40;83.86
63096;BME280;49184;55.596;37.770;2022-09-24T02:44:56;98317.50;;;10.78;83.44
63096;BME280;49184;55.596;37.770;2022-09-24T02:47:28;98309.88;;;10.84;83.31
63096;BME280;49184;55.596;37.770;2022-09-24T02:49:54;98264.19;;;10.60;82.92
63096;BME280;49184;55.596;37.770;2022-09-24T02:52:22;98264.19;;;10.60;82.71
63096;BME280;49184;55.596;37.770;2022-09-24T02:54:49;98276.38;;;10.74;82.67
63096;BME280;49184;55.596;37.770;2022-09-24T02:57:18;98298.47;;;10.81;82.17
63096;BME280;49184;55.596;37.770;2022-09-24T02:59:45;98311.81;;;10.83;82.49
63096;BME280;49184;55.596;37.770;2022-09-24T03:02:11;98303.16;;;10.81;83.41
63096;BME280;49184;55.596;37.770;2022-09-24T03:04:38;98281.25;;;10.69;83.35
63096;BME280;49184;55.596;37.770;2022-09-24T03:07:04;98289.94;;;10.71;83.00
63096;BME280;49184;55.596;37.770;2022-09-24T03:09:30;98270.19;;;10.65;82.43
63096;BME280;49184;55.596;37.770;2022-09-24T03:11:57;98277.53;;;10.73;82.27
63096;BME280;49184;55.596;37.770;2022-09-24T03:14:26;98272.06;;;10.73;82.14
63096;BME280;49184;55.596;37.770;2022-09-24T03:16:52;98262.69;;;10.62;82.35
63096;BME280;49184;55.596;37.770;2022-09-24T03:19:18;98280.50;;;10.80;83.05
63096;BME280;49184;55.596;37.770;2022-09-24T03:24:13;98282.66;;;10.87;82.54
63096;BME280;49184;55.596;37.770;2022-09-24T03:26:39;98238.44;;;10.61;82.74
63096;BME280;49184;55.596;37.770;2022-09-24T03:29:07;98276.16;;;10.92;82.54
63096;BME280;49184;55.596;37.770;2022-09-24T03:31:33;98245.72;;;10.69;82.65
63096;BME280;49184;55.596;37.770;2022-09-24T03:34:01;98267.84;;;10.88;82.87
63096;BME280;49184;55.596;37.770;2022-09-24T03:36:27;98245.84;;;10.72;82.64
63096;BME280;49184;55.596;37.770;2022-09-24T03:38:55;98258.16;;;10.78;82.68
63096;BME280;49184;55.596;37.770;2022-09-24T03:41:25;98223.63;;;10.62;83.08
63096;BME280;49184;55.596;37.770;2022-09-24T03:43:52;98242.09;;;10.77;83.07
63096;BME280;49184;55.596;37.770;2022-09-24T03:46:18;98214.44;;;10.66;83.01
63096;BME280;49184;55.596;37.770;2022-09-24T03:48:44;98242.91;;;10.77;83.00
63096;BME280;49184;55.596;37.770;2022-09-24T03:51:15;98196.53;;;10.69;82.66
63096;BME280;49184;55.596;37.770;2022-09-24T03:53:45;98211.69;;;10.78;82.17
63096;BME280;49184;55.596;37.770;2022-09-24T03:56:11;98205.91;;;10.80;81.35
63096;BME280;49184;55.596;37.770;2022-09-24T03:58:38;98161.59;;;10.50;81.20
63096;BME280;49184;55.596;37.770;2022-09-24T04:01:06;98200.75;;;10.66;81.82
63096;BME280;49184;55.596;37.770;2022-09-24T04:03:33;98185.16;;;10.54;82.09
63096;BME280;49184;55.596;37.770;2022-09-24T04:06:00;98171.47;;;10.54;82.71
63096;BME280;49184;55.596;37.770;2022-09-24T04:08:27;98148.25;;;10.48;82.38
63096;BME280;49184;55.596;37.770;2022-09-24T04:10:53;98177.63;;;10.64;82.26
63096;BME280;49184;55.596;37.770;2022-09-24T04:13:20;98199.28;;;10.56;81.87
63096;BME280;49184;55.596;37.770;2022-09-24T04:15:46;98180.25;;;10.60;82.50
63096;BME280;49184;55.596;37.770;2022-09-24T04:18:13;98174.44;;;10.62;82.56
63096;BME280;49184;55.596;37.770;2022-09-24T04:20:39;98187.44;;;10.77;82.17
63096;BME280;49184;55.596;37.770;2022-09-24T04:23:06;98187.75;;;10.75;81.92
63096;BME280;49184;55.596;37.770;2022-09-24T04:25:33;98156.69;;;10.68;82.08
63096;BME280;49184;55.596;37.770;2022-09-24T04:28:01;98167.94;;;10.78;82.51
63096;BME280;49184;55.596;37.770;2022-09-24T04:30:33;98152.47;;;10.70;81.65
63096;BME280;49184;55.596;37.770;2022-09-24T04:33:00;98089.63;;;10.33;81.55
63096;BME280;49184;55.596;37.770;2022-09-24T04:35:34;98104.31;;;10.29;81.20
63096;BME280;49184;55.596;37.770;2022-09-24T04:38:02;98125.03;;;10.30;81.96
63096;BME280;49184;55.596;37.770;2022-09-24T04:40:29;98147.69;;;10.55;83.46
63096;BME280;49184;55.596;37.770;2022-09-24T04:42:55;98086.97;;;10.12;81.67
63096;BME280;49184;55.596;37.770;2022-09-24T04:45:22;98140.16;;;10.52;81.57
63096;BME280;49184;55.596;37.770;2022-09-24T04:47:50;98125.59;;;10.48;81.62
63096;BME280;49184;55.596;37.770;2022-09-24T04:50:23;98107.50;;;10.43;81.85
63096;BME280;49184;55.596;37.770;2022-09-24T04:52:53;98097.16;;;10.37;81.21
63096;BME280;49184;55.596;37.770;2022-09-24T04:55:18;98127.19;;;10.49;81.11
63096;BME280;49184;55.596;37.770;2022-09-24T04:57:48;98113.78;;;10.44;81.87
63096;BME280;49184;55.596;37.770;2022-09-24T05:00:15;98113.63;;;10.52;81.83
63096;BME280;49184;55.596;37.770;2022-09-24T05:02:43;98091.53;;;10.33;81.53
63096;BME280;49184;55.596;37.770;2022-09-24T05:05:12;98081.28;;;10.18;82.51
63096;BME280;49184;55.596;37.770;2022-09-24T05:07:40;98077.53;;;10.10;82.12
63096;BME280;49184;55.596;37.770;2022-09-24T05:10:06;98069.66;;;10.08;82.84
63096;BME280;49184;55.596;37.770;2022-09-24T05:12:35;98087.34;;;10.23;82.48
63096;BME280;49184;55.596;37.770;2022-09-24T05:15:02;98047.25;;;10.03;82.00
63096;BME280;49184;55.596;37.770;2022-09-24T05:17:29;98082.69;;;10.36;82.35
63096;BME280;49184;55.596;37.770;2022-09-24T05:19:57;98034.63;;;9.98;82.25
63096;BME280;49184;55.596;37.770;2022-09-24T05:22:25;98064.00;;;10.26;82.48
63096;BME280;49184;55.596;37.770;2022-09-24T05:24:52;98061.28;;;10.26;82.81
63096;BME280;49184;55.596;37.770;2022-09-24T05:27:45;98061.03;;;10.19;82.81
63096;BME280;49184;55.596;37.770;2022-09-24T05:30:12;98062.38;;;10.12;82.88
63096;BME280;49184;55.596;37.770;2022-09-24T05:32:38;98044.88;;;10.01;83.47
63096;BME280;49184;55.596;37.770;2022-09-24T05:35:05;98017.41;;;9.73;83.39
63096;BME280;49184;55.596;37.770;2022-09-24T05:37:34;98042.38;;;10.08;83.86
63096;BME280;49184;55.596;37.770;2022-09-24T05:40:02;98001.75;;;9.95;84.18
63096;BME280;49184;55.596;37.770;2022-09-24T05:42:50;98007.13;;;10.03;82.79
63096;BME280;49184;55.596;37.770;2022-09-24T05:45:17;97986.41;;;9.90;83.23
63096;BME280;49184;55.596;37.770;2022-09-24T05:47:46;98011.06;;;10.06;82.56
63096;BME280;49184;55.596;37.770;2022-09-24T05:50:17;98007.78;;;10.00;83.32
63096;BME280;49184;55.596;37.770;2022-09-24T05:52:48;98024.94;;;10.13;82.85
63096;BME280;49184;55.596;37.770;2022-09-24T05:55:16;98019.63;;;10.17;82.78
63096;BME280;49184;55.596;37.770;2022-09-24T05:57:42;98009.13;;;10.06;82.50
63096;BME280;49184;55.596;37.770;2022-09-24T06:02:38;98009.81;;;10.16;82.52
63096;BME280;49184;55.596;37.770;2022-09-24T06:05:04;97974.47;;;10.07;82.63
63096;BME280;49184;55.596;37.770;2022-09-24T06:07:30;97956.59;;;10.09;81.97
63096;BME280;49184;55.596;37.770;2022-09-24T06:09:57;97943.06;;;10.01;81.54
63096;BME280;49184;55.596;37.770;2022-09-24T06:12:26;97959.78;;;10.11;80.80
63096;BME280;49184;55.596;37.770;2022-09-24T06:14:53;97993.69;;;10.35;81.59
63096;BME280;49184;55.596;37.770;2022-09-24T06:17:22;97937.94;;;10.11;80.71
63096;BME280;49184;55.596;37.770;2022-09-24T06:19:49;97946.59;;;10.14;81.23
63096;BME280;49184;55.596;37.770;2022-09-24T06:22:15;97987.31;;;10.43;82.12
63096;BME280;49184;55.596;37.770;2022-09-24T06:24:41;97980.25;;;10.42;81.76
63096;BME280;49184;55.596;37.770;2022-09-24T06:27:07;97953.28;;;10.28;81.34
63096;BME280;49184;55.596;37.770;2022-09-24T06:29:33;97940.53;;;10.20;80.58
63096;BME280;49184;55.596;37.770;2022-09-24T06:32:12;97938.38;;;10.26;81.32
63096;BME280;49184;55.596;37.770;2022-09-24T06:34:39;97902.34;;;10.08;80.86
63096;BME280;49184;55.596;37.770;2022-09-24T06:37:05;97951.34;;;10.41;81.11
63096;BME280;49184;55.596;37.770;2022-09-24T06:39:31;97916.63;;;10.29;81.91
63096;BME280;49184;55.596;37.770;2022-09-24T06:41:57;97945.75;;;10.50;81.79
63096;BME280;49184;55.596;37.770;2022-09-24T06:44:24;97947.78;;;10.53;80.65
63096;BME280;49184;55.596;37.770;2022-09-24T06:46:51;97972.44;;;10.69;80.36
63096;BME280;49184;55.596;37.770;2022-09-24T06:49:18;97972.81;;;10.55;81.38
63096;BME280;49184;55.596;37.770;2022-09-24T06:51:44;97946.09;;;10.36;80.77
63096;BME280;49184;55.596;37.770;2022-09-24T06:54:10;97937.44;;;10.46;81.57
63096;BME280;49184;55.596;37.770;2022-09-24T06:56:36;97962.69;;;10.55;80.97
63096;BME280;49184;55.596;37.770;2022-09-24T06:59:02;97926.56;;;10.34;80.60
63096;BME280;49184;55.596;37.770;2022-09-24T07:01:28;97922.78;;;10.26;80.67
63096;BME280;49184;55.596;37.770;2022-09-24T07:03:55;97898.13;;;10.10;80.56
63096;BME280;49184;55.596;37.770;2022-09-24T07:06:21;97944.81;;;10.46;80.38
63096;BME280;49184;55.596;37.770;2022-09-24T07:09:44;97911.41;;;10.37;81.39
63096;BME280;49184;55.596;37.770;2022-09-24T07:12:10;97928.44;;;10.46;80.93
63096;BME280;49184;55.596;37.770;2022-09-24T07:14:39;97889.69;;;10.16;80.22
63096;BME280;49184;55.596;37.770;2022-09-24T07:17:06;97919.03;;;10.31;79.88
63096;BME280;49184;55.596;37.770;2022-09-24T07:19:32;97905.47;;;10.22;80.17
63096;BME280;49184;55.596;37.770;2022-09-24T07:21:58;97928.13;;;10.35;79.72
63096;BME280;49184;55.596;37.770;2022-09-24T07:24:24;97936.31;;;10.47;79.93
63096;BME280;49184;55.596;37.770;2022-09-24T07:26:50;97935.16;;;10.48;79.43
63096;BME280;49184;55.596;37.770;2022-09-24T07:29:17;97919.13;;;10.47;80.37
63096;BME280;49184;55.596;37.770;2022-09-24T07:31:43;97908.31;;;10.38;80.49
63096;BME280;49184;55.596;37.770;2022-09-24T07:34:09;97901.41;;;10.28;80.36
63096;BME280;49184;55.596;37.770;2022-09-24T07:36:35;97911.53;;;10.28;79.88
63096;BME280;49184;55.596;37.770;2022-09-24T07:39:02;97851.09;;;9.77;80.58
63096;BME280;49184;55.596;37.770;2022-09-24T07:41:32;97877.09;;;9.86;81.11
63096;BME280;49184;55.596;37.770;2022-09-24T07:44:01;97924.94;;;10.21;80.96
63096;BME280;49184;55.596;37.770;2022-09-24T07:46:30;97914.03;;;10.21;80.95
63096;BME280;49184;55.596;37.770;2022-09-24T07:48:56;97898.06;;;10.23;81.37
63096;BME280;49184;55.596;37.770;2022-09-24T07:51:24;97877.31;;;10.06;80.81
63096;BME280;49184;55.596;37.770;2022-09-24T07:53:53;97897.66;;;10.21;80.62
63096;BME280;49184;55.596;37.770;2022-09-24T07:56:20;97880.72;;;10.03;80.92
63096;BME280;49184;55.596;37.770;2022-09-24T07:58:51;97903.47;;;10.07;81.32
63096;BME280;49184;55.596;37.770;2022-09-24T08:01:19;97896.88;;;9.96;80.71
63096;BME280;49184;55.596;37.770;2022-09-24T08:03:45;97854.28;;;9.67;81.17
63096;BME280;49184;55.596;37.770;2022-09-24T08:06:12;97889.84;;;10.07;81.51
63096;BME280;49184;55.596;37.770;2022-09-24T08:08:41;97868.00;;;10.07;81.19
63096;BME280;49184;55.596;37.770;2022-09-24T08:11:10;97894.34;;;10.15;81.36
63096;BME280;49184;55.596;37.770;2022-09-24T08:13:38;97871.25;;;10.12;82.55
63096;BME280;49184;55.596;37.770;2022-09-24T08:16:05;97875.69;;;10.17;81.56
63096;BME280;49184;55.596;37.770;2022-09-24T08:18:33;97848.19;;;10.10;81.02
63096;BME280;49184;55.596;37.770;2022-09-24T08:21:08;97845.09;;;10.11;81.27
63096;BME280;49184;55.596;37.770;2022-09-24T08:23:38;97864.69;;;10.14;81.34
63096;BME280;49184;55.596;37.770;2022-09-24T08:26:10;97870.03;;;10.10;81.69
63096;BME280;49184;55.596;37.770;2022-09-24T08:28:39;97889.78;;;10.19;81.70
63096;BME280;49184;55.596;37.770;2022-09-24T08:31:09;97861.47;;;10.11;81.50
63096;BME280;49184;55.596;37.770;2022-09-24T08:33:37;97867.16;;;10.06;80.61
63096;BME280;49184;55.596;37.770;2022-09-24T08:36:04;97881.50;;;10.16;81.42
63096;BME280;49184;55.596;37.770;2022-09-24T08:38:31;97883.75;;;10.26;81.30
63096;BME280;49184;55.596;37.770;2022-09-24T08:46:16;97845.00;;;10.08;81.08
63096;BME280;49184;55.596;37.770;2022-09-24T08:49:04;97868.19;;;10.14;81.62
63096;BME280;49184;55.596;37.770;2022-09-24T08:51:39;97867.59;;;10.21;82.07
63096;BME280;49184;55.596;37.770;2022-09-24T08:54:13;97847.44;;;10.25;82.09
63096;BME280;49184;55.596;37.770;2022-09-24T08:56:44;97859.03;;;10.47;81.76
63096;BME280;49184;55.596;37.770;2022-09-24T08:59:24;97872.28;;;10.61;81.03
63096;BME280;49184;55.596;37.770;2022-09-24T09:07:26;97838.53;;;10.69;81.07
63096;BME280;49184;55.596;37.770;2022-09-24T09:10:09;97839.94;;;10.78;81.80
63096;BME280;49184;55.596;37.770;2022-09-24T09:12:44;97852.84;;;10.94;82.39
63096;BME280;49184;55.596;37.770;2022-09-24T09:15:31;97857.59;;;10.81;79.46
63096;BME280;49184;55.596;37.770;2022-09-24T09:18:03;97850.09;;;10.78;79.33
63096;BME280;49184;55.596;37.770;2022-09-24T09:20:40;97831.44;;;10.52;80.54
63096;BME280;49184;55.596;37.770;2022-09-24T09:23:18;97843.72;;;10.58;79.38
63096;BME280;49184;55.596;37.770;2022-09-24T09:25:54;97832.91;;;10.33;80.48
63096;BME280;49184;55.596;37.770;2022-09-24T09:28:21;97825.22;;;10.39;80.70
63096;BME280;49184;55.596;37.770;2022-09-24T09:33:52;97845.41;;;10.78;80.41
63096;BME280;49184;55.596;37.770;2022-09-24T09:44:50;97841.47;;;10.92;80.62
63096;BME280;49184;55.596;37.770;2022-09-24T09:49:55;97798.56;;;10.48;79.23
63096;BME280;49184;55.596;37.770;2022-09-24T09:52:27;97807.34;;;10.42;79.70
63096;BME280;49184;55.596;37.770;2022-09-24T09:54:55;97782.81;;;10.29;80.55
63096;BME280;49184;55.596;37.770;2022-09-24T09:57:24;97790.19;;;10.41;80.45
63096;BME280;49184;55.596;37.770;2022-09-24T10:00:03;97785.63;;;10.61;82.23
63096;BME280;49184;55.596;37.770;2022-09-24T10:02:41;97825.94;;;10.80;79.82
63096;BME280;49184;55.596;37.770;2022-09-24T10:05:21;97814.38;;;10.71;79.89
63096;BME280;49184;55.596;37.770;2022-09-24T10:07:54;97808.72;;;10.64;80.38
63096;BME280;49184;55.596;37.770;2022-09-24T10:10:27;97769.09;;;10.42;80.34
63096;BME280;49184;55.596;37.770;2022-09-24T10:13:10;97796.00;;;10.55;81.07
63096;BME280;49184;55.596;37.770;2022-09-24T10:16:01;97821.59;;;10.79;80.32
63096;BME280;49184;55.596;37.770;2022-09-24T10:18:29;97822.75;;;10.78;79.70
63096;BME280;49184;55.596;37.770;2022-09-24T10:21:01;97804.59;;;10.70;80.18
63096;BME280;49184;55.596;37.770;2022-09-24T10:23:36;97779.19;;;10.53;80.71
63096;BME280;49184;55.596;37.770;2022-09-24T10:26:03;97800.66;;;10.83;81.75
63096;BME280;49184;55.596;37.770;2022-09-24T10:28:39;97789.97;;;10.78;80.71
63096;BME280;49184;55.596;37.770;2022-09-24T10:31:28;97746.56;;;10.45;79.53
63096;BME280;49184;55.596;37.770;2022-09-24T10:33:57;97808.06;;;10.98;80.56
63096;BME280;49184;55.596;37.770;2022-09-24T10:36:28;97826.31;;;11.10;80.90
63096;BME280;49184;55.596;37.770;2022-09-24T10:39:11;97809.91;;;11.10;79.45
63096;BME280;49184;55.596;37.770;2022-09-24T10:41:49;97795.78;;;11.08;79.87
63096;BME280;49184;55.596;37.770;2022-09-24T10:44:15;97821.72;;;11.14;80.46
63096;BME280;49184;55.596;37.770;2022-09-24T10:50:11;97812.91;;;11.37;80.94
63096;BME280;49184;55.596;37.770;2022-09-24T11:04:09;97805.47;;;11.37;80.23
63096;BME280;49184;55.596;37.770;2022-09-24T11:06:48;97800.25;;;11.32;78.65
63096;BME280;49184;55.596;37.770;2022-09-24T11:12:36;97795.16;;;11.46;79.88
63096;BME280;49184;55.596;37.770;2022-09-24T11:26:50;97778.13;;;11.37;79.23
63096;BME280;49184;55.596;37.770;2022-09-24T11:35:17;97790.22;;;11.20;79.43
63096;BME280;49184;55.596;37.770;2022-09-24T11:38:02;97789.88;;;11.22;79.33
63096;BME280;49184;55.596;37.770;2022-09-24T11:41:08;97782.09;;;11.40;79.52
63096;BME280;49184;55.596;37.770;2022-09-24T11:49:42;97773.38;;;11.34;77.75
63096;BME280;49184;55.596;37.770;2022-09-24T11:52:40;97772.66;;;11.37;79.02
63096;BME280;49184;55.596;37.770;2022-09-24T11:55:14;97779.84;;;11.45;77.91
63096;BME280;49184;55.596;37.770;2022-09-24T12:00:26;97768.03;;;11.57;79.16
63096;BME280;49184;55.596;37.770;2022-09-24T12:05:45;97753.25;;;11.62;78.64
63096;BME280;49184;55.596;37.770;2022-09-24T12:08:27;97747.34;;;11.60;78.21
63096;BME280;49184;55.596;37.770;2022-09-24T12:11:00;97759.44;;;11.59;77.64
63096;BME280;49184;55.596;37.770;2022-09-24T12:13:35;97772.59;;;11.69;78.73
63096;BME280;49184;55.596;37.770;2022-09-24T12:16:09;97773.53;;;11.76;78.70
63096;BME280;49184;55.596;37.770;2022-09-24T12:19:00;97777.06;;;11.77;78.03
63096;BME280;49184;55.596;37.770;2022-09-24T12:21:39;97775.81;;;11.74;78.76
63096;BME280;49184;55.596;37.770;2022-09-24T12:24:16;97766.81;;;11.74;79.04
63096;BME280;49184;55.596;37.770;2022-09-24T12:26:47;97767.19;;;11.72;78.31
63096;BME280;49184;55.596;37.770;2022-09-24T12:29:29;97762.63;;;11.61;77.31
63096;BME280;49184;55.596;37.770;2022-09-24T12:32:33;97742.28;;;11.42;78.20
63096;BME280;49184;55.596;37.770;2022-09-24T12:38:11;97761.94;;;11.48;79.04
63096;BME280;49184;55.596;37.770;2022-09-24T12:43:19;97757.00;;;11.53;78.22
63096;BME280;49184;55.596;37.770;2022-09-24T12:45:55;97746.94;;;11.42;77.93
63096;BME280;49184;55.596;37.770;2022-09-24T12:48:24;97749.25;;;11.40;77.22
63096;BME280;49184;55.596;37.770;2022-09-24T12:50:59;97758.47;;;11.67;78.50
63096;BME280;49184;55.596;37.770;2022-09-24T12:53:34;97756.88;;;11.66;78.68
63096;BME280;49184;55.596;37.770;2022-09-24T12:56:03;97718.09;;;11.44;78.48
63096;BME280;49184;55.596;37.770;2022-09-24T12:58:36;97750.69;;;11.69;78.76
63096;BME280;49184;55.596;37.770;2022-09-24T13:01:32;97740.81;;;11.64;78.25
63096;BME280;49184;55.596;37.770;2022-09-24T13:04:49;97759.47;;;11.78;78.02
63096;BME280;49184;55.596;37.770;2022-09-24T13:07:34;97761.78;;;11.76;78.47
63096;BME280;49184;55.596;37.770;2022-09-24T13:10:30;97753.25;;;11.62;77.68
63096;BME280;49184;55.596;37.770;2022-09-24T13:12:58;97743.16;;;11.46;78.25
63096;BME280;49184;55.596;37.770;2022-09-24T13:15:39;97732.06;;;11.39;77.88
63096;BME280;49184;55.596;37.770;2022-09-24T13:20:37;97761.34;;;11.39;78.59
63096;BME280;49184;55.596;37.770;2022-09-24T13:23:50;97749.91;;;11.33;78.66
63096;BME280;49184;55.596;37.770;2022-09-24T13:26:34;97748.13;;;11.25;79.24
63096;BME280;49184;55.596;37.770;2022-09-24T13:29:04;97724.69;;;11.08;78.30
63096;BME280;49184;55.596;37.770;2022-09-24T13:31:50;97737.75;;;11.15;78.02
63096;BME280;49184;55.596;37.770;2022-09-24T13:34:25;97746.72;;;11.31;78.62
63096;BME280;49184;55.596;37.770;2022-09-24T13:37:09;97749.91;;;11.33;78.76
63096;BME280;49184;55.596;37.770;2022-09-24T13:39:55;97721.34;;;11.15;78.71
63096;BME280;49184;55.596;37.770;2022-09-24T13:45:16;97748.75;;;11.18;78.40
63096;BME280;49184;55.596;37.770;2022-09-24T13:47:50;97739.50;;;11.23;79.54
63096;BME280;49184;55.596;37.770;2022-09-24T13:54:02;97758.44;;;11.32;79.05
63096;BME280;49184;55.596;37.770;2022-09-24T13:56:31;97716.25;;;10.97;78.56
63096;BME280;49184;55.596;37.770;2022-09-24T13:59:12;97713.84;;;10.96;78.86
63096;BME280;49184;55.596;37.770;2022-09-24T14:01:42;97732.38;;;11.02;78.88
63096;BME280;49184;55.596;37.770;2022-09-24T14:04:19;97739.06;;;11.05;79.42
63096;BME280;49184;55.596;37.770;2022-09-24T14:09:31;97751.34;;;11.11;78.57
63096;BME280;49184;55.596;37.770;2022-09-24T14:12:12;97739.94;;;11.09;78.83
63096;BME280;49184;55.596;37.770;2022-09-24T14:14:44;97751.06;;;11.16;79.03
63096;BME280;49184;55.596;37.770;2022-09-24T14:17:15;97713.41;;;11.10;78.67
63096;BME280;49184;55.596;37.770;2022-09-24T14:19:42;97709.63;;;10.98;78.53
63096;BME280;49184;55.596;37.770;2022-09-24T14:22:36;97729.56;;;10.99;78.78
63096;BME280;49184;55.596;37.770;2022-09-24T14:25:08;97740.16;;;11.00;79.04
63096;BME280;49184;55.596;37.770;2022-09-24T14:27:41;97726.47;;;11.00;79.14
63096;BME280;49184;55.596;37.770;2022-09-24T14:30:18;97736.78;;;11.07;78.75
63096;BME280;49184;55.596;37.770;2022-09-24T14:32:50;97725.53;;;10.93;78.13
63096;BME280;49184;55.596;37.770;2022-09-24T14:35:32;97736.41;;;11.09;78.27
63096;BME280;49184;55.596;37.770;2022-09-24T14:38:06;97724.78;;;10.96;78.39
63096;BME280;49184;55.596;37.770;2022-09-24T14:40:46;97705.84;;;10.87;78.89
63096;BME280;49184;55.596;37.770;2022-09-24T14:43:22;97727.34;;;11.04;78.77
63096;BME280;49184;55.596;37.770;2022-09-24T14:45:50;97731.84;;;11.13;78.58
63096;BME280;49184;55.596;37.770;2022-09-24T14:48:43;97738.75;;;11.07;78.35
63096;BME280;49184;55.596;37.770;2022-09-24T14:54:02;97724.91;;;10.99;78.48
63096;BME280;49184;55.596;37.770;2022-09-24T14:56:32;97711.75;;;10.89;79.30
63096;BME280;49184;55.596;37.770;2022-09-24T14:59:12;97741.91;;;11.09;78.58
63096;BME280;49184;55.596;37.770;2022-09-24T15:01:38;97730.63;;;11.10;79.01
63096;BME280;49184;55.596;37.770;2022-09-24T15:04:19;97711.75;;;10.89;78.99
63096;BME280;49184;55.596;37.770;2022-09-24T15:06:48;97727.03;;;10.90;78.48
63096;BME280;49184;55.596;37.770;2022-09-24T15:09:27;97731.06;;;10.96;79.33
63096;BME280;49184;55.596;37.770;2022-09-24T15:12:08;97707.72;;;10.83;79.40
63096;BME280;49184;55.596;37.770;2022-09-24T15:14:34;97705.31;;;10.81;79.13
63096;BME280;49184;55.596;37.770;2022-09-24T15:17:09;97737.66;;;11.11;79.47